createdAt,value
2017-07-08T00:00:20.526Z,0
2017-07-08T00:01:01.125Z,0
2017-07-08T00:01:41.698Z,0
2017-07-08T00:02:22.278Z,0
2017-07-08T00:03:02.851Z,0
2017-07-08T00:03:43.448Z,0
2017-07-08T00:04:24.037Z,0
2017-07-08T00:05:04.604Z,0
2017-07-08T00:05:45.168Z,0
2017-07-08T00:06:25.759Z,0
2017-07-08T00:07:06.357Z,0
2017-07-08T00:07:46.930Z,0
2017-07-08T00:08:27.533Z,0
2017-07-08T00:09:08.118Z,0
2017-07-08T00:09:48.706Z,0
2017-07-08T00:10:29.279Z,0
2017-07-08T00:11:09.845Z,0
2017-07-08T00:11:50.414Z,0
2017-07-08T00:12:30.975Z,0
2017-07-08T00:13:11.541Z,0
2017-07-08T00:13:52.126Z,0
2017-07-08T00:14:32.720Z,0
2017-07-08T00:15:13.351Z,0
2017-07-08T00:15:53.924Z,0
2017-07-08T00:16:34.494Z,0
2017-07-08T00:17:15.074Z,0
2017-07-08T00:17:55.645Z,0
2017-07-08T00:18:36.224Z,0
2017-07-08T00:19:16.808Z,0
2017-07-08T00:19:57.381Z,0
2017-07-08T00:20:37.963Z,0
2017-07-08T00:21:18.540Z,0
2017-07-08T00:21:59.106Z,0
2017-07-08T00:22:39.698Z,0
2017-07-08T00:23:20.299Z,0
2017-07-08T00:24:00.902Z,0
2017-07-08T00:24:41.475Z,0
2017-07-08T00:25:22.044Z,0
2017-07-08T00:26:02.623Z,0
2017-07-08T00:26:43.206Z,0
2017-07-08T00:27:23.780Z,0
2017-07-08T00:28:04.363Z,0
2017-07-08T00:28:44.920Z,0
2017-07-08T00:29:25.505Z,0
2017-07-08T00:30:06.070Z,0
2017-07-08T00:30:46.692Z,0
2017-07-08T00:31:27.260Z,0
2017-07-08T00:32:07.838Z,0
2017-07-08T00:32:48.408Z,0
2017-07-08T00:33:28.966Z,0
2017-07-08T00:34:09.550Z,0
2017-07-08T00:34:50.141Z,0
2017-07-08T00:35:30.726Z,0
2017-07-08T00:36:11.331Z,0
2017-07-08T00:36:51.953Z,0
2017-07-08T00:37:32.519Z,0
2017-07-08T00:38:13.097Z,0
2017-07-08T00:38:53.671Z,0
2017-07-08T00:39:34.241Z,0
2017-07-08T00:40:14.818Z,0
2017-07-08T00:40:55.383Z,0
2017-07-08T00:41:35.967Z,0
2017-07-08T00:42:16.540Z,0
2017-07-08T00:42:57.112Z,0
2017-07-08T00:43:37.680Z,0
2017-07-08T00:44:18.246Z,0
2017-07-08T00:44:58.806Z,0
2017-07-08T00:45:39.479Z,0
2017-07-08T00:46:20.039Z,0
2017-07-08T00:47:00.645Z,0
2017-07-08T00:47:41.300Z,0
2017-07-08T00:48:22.083Z,0
2017-07-08T00:49:02.714Z,0
2017-07-08T00:49:43.286Z,0
2017-07-08T00:50:24.401Z,0
2017-07-08T00:51:05.021Z,0
2017-07-08T00:51:45.648Z,0
2017-07-08T00:52:26.290Z,0
2017-07-08T00:53:06.916Z,0
2017-07-08T00:53:47.669Z,0
2017-07-08T00:54:28.250Z,0
2017-07-08T00:55:08.827Z,0
2017-07-08T00:55:49.454Z,0
2017-07-08T00:56:30.063Z,0
2017-07-08T00:57:10.655Z,0
2017-07-08T00:57:51.228Z,0
2017-07-08T00:58:31.803Z,0
2017-07-08T00:59:12.433Z,0
2017-07-08T00:59:53.182Z,0
2017-07-08T01:00:34.418Z,0
2017-07-08T01:01:14.993Z,0
2017-07-08T01:01:55.580Z,0
2017-07-08T01:02:36.169Z,0
2017-07-08T01:03:16.754Z,0
2017-07-08T01:03:57.505Z,0
2017-07-08T01:04:38.125Z,0
2017-07-08T01:05:18.813Z,0
2017-07-08T01:05:59.492Z,0
2017-07-08T01:06:40.025Z,0
2017-07-08T01:07:20.589Z,0
2017-07-08T01:08:01.258Z,0
2017-07-08T01:08:41.872Z,0
2017-07-08T01:09:22.499Z,0
2017-07-08T01:10:03.109Z,0
2017-07-08T01:10:43.688Z,0
2017-07-08T01:11:24.275Z,0
2017-07-08T01:12:04.924Z,0
2017-07-08T01:12:45.662Z,0
2017-07-08T01:13:26.277Z,0
2017-07-08T01:14:07.004Z,0
2017-07-08T01:14:47.589Z,0
2017-07-08T01:15:28.289Z,0
2017-07-08T01:16:08.891Z,0
2017-07-08T01:16:49.497Z,0
2017-07-08T01:17:30.094Z,0
2017-07-08T01:18:10.676Z,0
2017-07-08T01:18:51.247Z,0
2017-07-08T01:19:31.829Z,0
2017-07-08T01:20:12.418Z,0
2017-07-08T01:20:52.987Z,0
2017-07-08T01:21:33.621Z,0
2017-07-08T01:22:14.196Z,0
2017-07-08T01:22:54.762Z,0
2017-07-08T01:23:35.340Z,0
2017-07-08T01:24:15.984Z,0
2017-07-08T01:24:56.556Z,0
2017-07-08T01:25:37.120Z,0
2017-07-08T01:26:17.707Z,0
2017-07-08T01:26:58.292Z,0
2017-07-08T01:27:38.875Z,0
2017-07-08T01:28:19.468Z,0
2017-07-08T01:29:00.048Z,0
2017-07-08T01:29:40.635Z,0
2017-07-08T01:30:21.194Z,0
2017-07-08T01:31:01.783Z,0
2017-07-08T01:31:42.343Z,0
2017-07-08T01:32:22.938Z,0
2017-07-08T01:33:03.525Z,0
2017-07-08T01:33:44.112Z,0
2017-07-08T01:34:24.669Z,0
2017-07-08T01:35:05.234Z,0
2017-07-08T01:35:45.827Z,0
2017-07-08T01:36:26.425Z,0
2017-07-08T01:37:07.009Z,0
2017-07-08T01:37:47.590Z,0
2017-07-08T01:38:28.155Z,0
2017-07-08T01:39:08.746Z,0
2017-07-08T01:39:49.323Z,0
2017-07-08T01:40:29.887Z,0
2017-07-08T01:41:10.475Z,0
2017-07-08T01:41:51.074Z,0
2017-07-08T01:42:31.682Z,0
2017-07-08T01:43:12.264Z,0
2017-07-08T01:43:52.826Z,0
2017-07-08T01:44:33.446Z,0
2017-07-08T01:45:14.029Z,0
2017-07-08T01:45:54.664Z,0
2017-07-08T01:46:35.230Z,0
2017-07-08T01:47:15.823Z,0
2017-07-08T01:47:56.422Z,0
2017-07-08T01:48:37.000Z,0
2017-07-08T01:49:17.574Z,0
2017-07-08T01:49:58.212Z,0
2017-07-08T01:50:38.766Z,0
2017-07-08T01:51:19.381Z,0
2017-07-08T01:51:59.969Z,0
2017-07-08T01:52:40.549Z,0
2017-07-08T01:53:21.166Z,0
2017-07-08T01:54:01.745Z,0
2017-07-08T01:54:42.339Z,0
2017-07-08T01:55:22.935Z,0
2017-07-08T01:56:03.512Z,0
2017-07-08T01:56:44.090Z,0
2017-07-08T01:57:24.688Z,0
2017-07-08T01:58:05.281Z,0
2017-07-08T01:58:45.853Z,0
2017-07-08T01:59:26.434Z,0
2017-07-08T02:00:07.017Z,0
2017-07-08T02:00:47.697Z,0
2017-07-08T02:01:28.254Z,0
2017-07-08T02:02:08.955Z,0
2017-07-08T02:02:49.525Z,0
2017-07-08T02:03:30.097Z,0
2017-07-08T02:04:10.669Z,0
2017-07-08T02:04:51.239Z,0
2017-07-08T02:05:31.833Z,0
2017-07-08T02:06:12.427Z,0
2017-07-08T02:06:52.995Z,0
2017-07-08T02:07:33.580Z,0
2017-07-08T02:08:14.183Z,0
2017-07-08T02:08:54.764Z,0
2017-07-08T02:09:35.341Z,0
2017-07-08T02:10:15.930Z,0
2017-07-08T02:10:56.521Z,0
2017-07-08T02:11:37.091Z,0
2017-07-08T02:12:17.683Z,0
2017-07-08T02:12:58.280Z,0
2017-07-08T02:13:38.853Z,0
2017-07-08T02:14:19.444Z,0
2017-07-08T02:15:00.022Z,0
2017-07-08T02:15:40.573Z,0
2017-07-08T02:16:21.179Z,0
2017-07-08T02:17:01.746Z,0
2017-07-08T02:17:42.358Z,0
2017-07-08T02:18:22.942Z,0
2017-07-08T02:19:03.565Z,0
2017-07-08T02:19:44.161Z,0
2017-07-08T02:20:24.760Z,0
2017-07-08T02:21:05.344Z,0
2017-07-08T02:21:45.958Z,0
2017-07-08T02:22:26.561Z,0
2017-07-08T02:23:07.134Z,0
2017-07-08T02:23:47.725Z,0
2017-07-08T02:24:28.312Z,0
2017-07-08T02:25:08.890Z,0
2017-07-08T02:25:49.469Z,0
2017-07-08T02:26:30.073Z,0
2017-07-08T02:27:10.683Z,0
2017-07-08T02:27:51.272Z,0
2017-07-08T02:28:31.905Z,0
2017-07-08T02:29:12.517Z,0
2017-07-08T02:29:53.094Z,0
2017-07-08T02:30:33.673Z,0
2017-07-08T02:31:14.264Z,0
2017-07-08T02:31:54.831Z,0
2017-07-08T02:32:35.424Z,0
2017-07-08T02:33:16.000Z,0
2017-07-08T02:33:56.600Z,0
2017-07-08T02:34:37.204Z,0
2017-07-08T02:35:17.798Z,0
2017-07-08T02:35:58.376Z,0
2017-07-08T02:36:38.938Z,0
2017-07-08T02:37:19.509Z,0
2017-07-08T02:38:00.076Z,0
2017-07-08T02:38:40.645Z,0
2017-07-08T02:39:21.246Z,0
2017-07-08T02:40:01.811Z,0
2017-07-08T02:40:42.423Z,0
2017-07-08T02:41:23.034Z,0
2017-07-08T02:42:03.615Z,0
2017-07-08T02:42:44.179Z,0
2017-07-08T02:43:24.762Z,0
2017-07-08T02:44:05.348Z,0
2017-07-08T02:44:45.911Z,0
2017-07-08T02:45:26.497Z,0
2017-07-08T02:46:07.102Z,0
2017-07-08T02:46:47.668Z,0
2017-07-08T02:47:28.240Z,0
2017-07-08T02:48:08.830Z,0
2017-07-08T02:48:49.406Z,0
2017-07-08T02:49:30.035Z,0
2017-07-08T02:50:10.655Z,0
2017-07-08T02:50:51.253Z,0
2017-07-08T02:51:31.848Z,0
2017-07-08T02:52:12.456Z,0
2017-07-08T02:52:53.028Z,0
2017-07-08T02:53:33.622Z,0
2017-07-08T02:54:14.211Z,0
2017-07-08T02:54:54.789Z,0
2017-07-08T02:55:35.399Z,0
2017-07-08T02:56:15.991Z,0
2017-07-08T02:56:56.585Z,0
2017-07-08T02:57:37.200Z,0
2017-07-08T02:58:17.813Z,0
2017-07-08T02:58:58.406Z,0
2017-07-08T02:59:39.007Z,0
2017-07-08T03:00:19.634Z,0
2017-07-08T03:01:00.178Z,0
2017-07-08T03:01:40.742Z,0
2017-07-08T03:02:21.314Z,0
2017-07-08T03:03:01.897Z,0
2017-07-08T03:03:42.507Z,0
2017-07-08T03:04:23.141Z,0
2017-07-08T03:05:03.717Z,0
2017-07-08T03:05:44.345Z,0
2017-07-08T03:06:24.923Z,0
2017-07-08T03:07:05.517Z,0
2017-07-08T03:07:46.115Z,5
2017-07-08T03:08:26.725Z,5
2017-07-08T03:09:07.333Z,5
2017-07-08T03:09:47.971Z,5
2017-07-08T03:10:28.611Z,5
2017-07-08T03:11:09.195Z,5
2017-07-08T03:11:49.774Z,5
2017-07-08T03:12:30.405Z,5
2017-07-08T03:13:10.981Z,5
2017-07-08T03:13:51.555Z,5
2017-07-08T03:14:32.148Z,5
2017-07-08T03:15:12.756Z,5
2017-07-08T03:15:53.350Z,5
2017-07-08T03:16:33.964Z,5
2017-07-08T03:17:14.587Z,5
2017-07-08T03:17:55.173Z,5
2017-07-08T03:18:35.759Z,5
2017-07-08T03:19:16.332Z,5
2017-07-08T03:19:56.950Z,5
2017-07-08T03:20:37.514Z,5
2017-07-08T03:21:18.128Z,5
2017-07-08T03:21:58.732Z,5
2017-07-08T03:22:39.348Z,5
2017-07-08T03:23:19.953Z,5
2017-07-08T03:24:00.604Z,5
2017-07-08T03:24:41.187Z,5
2017-07-08T03:25:21.774Z,5
2017-07-08T03:26:02.411Z,5
2017-07-08T03:26:43.001Z,5
2017-07-08T03:27:23.629Z,5
2017-07-08T03:28:04.197Z,5
2017-07-08T03:28:44.783Z,0
2017-07-08T03:29:25.378Z,0
2017-07-08T03:30:05.994Z,0
2017-07-08T03:30:46.565Z,0
2017-07-08T03:31:27.172Z,0
2017-07-08T03:32:07.775Z,0
2017-07-08T03:32:48.343Z,0
2017-07-08T03:33:28.927Z,0
2017-07-08T03:34:09.499Z,0
2017-07-08T03:34:50.175Z,0
2017-07-08T03:35:30.746Z,0
2017-07-08T03:36:11.319Z,0
2017-07-08T03:36:51.890Z,0
2017-07-08T03:37:32.480Z,0
2017-07-08T03:38:13.072Z,0
2017-07-08T03:38:53.655Z,0
2017-07-08T03:39:34.230Z,5
2017-07-08T03:40:14.840Z,5
2017-07-08T03:40:55.409Z,5
2017-07-08T03:41:36.002Z,5
2017-07-08T03:42:16.577Z,5
2017-07-08T03:42:57.255Z,5
2017-07-08T03:43:37.790Z,5
2017-07-08T03:44:18.372Z,5
2017-07-08T03:44:58.958Z,5
2017-07-08T03:45:39.544Z,5
2017-07-08T03:46:20.136Z,5
2017-07-08T03:47:00.719Z,5
2017-07-08T03:47:41.321Z,5
2017-07-08T03:48:21.911Z,5
2017-07-08T03:49:02.491Z,5
2017-07-08T03:49:43.113Z,5
2017-07-08T03:50:23.675Z,5
2017-07-08T03:51:04.247Z,5
2017-07-08T03:51:44.847Z,5
2017-07-08T03:52:25.452Z,5
2017-07-08T03:53:06.034Z,10
2017-07-08T03:53:46.604Z,10
2017-07-08T03:54:27.183Z,10
2017-07-08T03:55:07.765Z,10
2017-07-08T03:55:48.346Z,10
2017-07-08T03:56:28.927Z,10
2017-07-08T03:57:09.578Z,10
2017-07-08T03:57:50.168Z,10
2017-07-08T03:58:30.772Z,10
2017-07-08T03:59:11.359Z,15
2017-07-08T03:59:51.936Z,15
2017-07-08T04:00:32.511Z,15
2017-07-08T04:01:13.072Z,15
2017-07-08T04:01:53.645Z,15
2017-07-08T04:02:34.222Z,15
2017-07-08T04:03:14.790Z,15
2017-07-08T04:03:55.379Z,20
2017-07-08T04:04:35.962Z,20
2017-07-08T04:05:16.554Z,20
2017-07-08T04:05:57.121Z,25
2017-07-08T04:06:37.702Z,25
2017-07-08T04:07:18.296Z,25
2017-07-08T04:07:58.888Z,30
2017-07-08T04:08:39.463Z,35
2017-07-08T04:09:20.028Z,35
2017-07-08T04:10:00.597Z,35
2017-07-08T04:10:41.202Z,40
2017-07-08T04:11:21.768Z,40
2017-07-08T04:12:02.669Z,40
2017-07-08T04:12:43.249Z,45
2017-07-08T04:13:23.846Z,45
2017-07-08T04:14:04.423Z,45
2017-07-08T04:14:45.010Z,45
2017-07-08T04:15:25.579Z,45
2017-07-08T04:16:06.161Z,45
2017-07-08T04:16:46.752Z,50
2017-07-08T04:17:27.313Z,50
2017-07-08T04:18:07.887Z,50
2017-07-08T04:18:48.474Z,45
2017-07-08T04:19:29.063Z,45
2017-07-08T04:20:09.664Z,45
2017-07-08T04:20:50.243Z,45
2017-07-08T04:21:30.828Z,45
2017-07-08T04:22:11.407Z,50
2017-07-08T04:22:52.009Z,50
2017-07-08T04:23:32.564Z,50
2017-07-08T04:24:13.168Z,50
2017-07-08T04:24:53.765Z,50
2017-07-08T04:25:34.338Z,50
2017-07-08T04:26:14.910Z,55
2017-07-08T04:26:55.501Z,55
2017-07-08T04:27:36.077Z,55
2017-07-08T04:28:16.680Z,55
2017-07-08T04:28:57.491Z,50
2017-07-08T04:29:38.590Z,50
2017-07-08T04:30:19.165Z,50
2017-07-08T04:30:59.767Z,50
2017-07-08T04:31:40.329Z,50
2017-07-08T04:32:20.895Z,55
2017-07-08T04:33:01.497Z,60
2017-07-08T04:33:42.079Z,65
2017-07-08T04:34:22.691Z,70
2017-07-08T04:35:03.272Z,70
2017-07-08T04:35:43.844Z,70
2017-07-08T04:36:24.415Z,70
2017-07-08T04:37:04.989Z,70
2017-07-08T04:37:45.583Z,70
2017-07-08T04:38:26.156Z,70
2017-07-08T04:39:06.754Z,70
2017-07-08T04:39:47.337Z,65
2017-07-08T04:40:27.925Z,65
2017-07-08T04:41:08.500Z,60
2017-07-08T04:41:49.061Z,65
2017-07-08T04:42:29.626Z,65
2017-07-08T04:43:10.200Z,60
2017-07-08T04:43:50.785Z,60
2017-07-08T04:44:31.360Z,65
2017-07-08T04:45:11.926Z,70
2017-07-08T04:45:52.504Z,75
2017-07-08T04:46:33.087Z,80
2017-07-08T04:47:13.659Z,80
2017-07-08T04:47:54.238Z,80
2017-07-08T04:48:34.815Z,75
2017-07-08T04:49:15.391Z,70
2017-07-08T04:49:55.960Z,70
2017-07-08T04:50:36.546Z,65
2017-07-08T04:51:17.117Z,60
2017-07-08T04:51:57.697Z,60
2017-07-08T04:52:38.274Z,55
2017-07-08T04:53:18.846Z,55
2017-07-08T04:53:59.426Z,55
2017-07-08T04:54:40.002Z,55
2017-07-08T04:55:20.579Z,50
2017-07-08T04:56:01.142Z,50
2017-07-08T04:56:41.732Z,50
2017-07-08T04:57:22.302Z,45
2017-07-08T04:58:02.869Z,50
2017-07-08T04:58:43.581Z,50
2017-07-08T04:59:24.166Z,55
2017-07-08T05:00:04.743Z,55
2017-07-08T05:00:45.310Z,55
2017-07-08T05:01:25.910Z,55
2017-07-08T05:02:06.483Z,55
2017-07-08T05:02:47.053Z,55
2017-07-08T05:03:27.630Z,55
2017-07-08T05:04:08.291Z,55
2017-07-08T05:04:48.842Z,55
2017-07-08T05:05:29.424Z,55
2017-07-08T05:06:09.993Z,55
2017-07-08T05:06:50.560Z,55
2017-07-08T05:07:31.148Z,55
2017-07-08T05:08:11.718Z,55
2017-07-08T05:08:52.308Z,55
2017-07-08T05:09:32.880Z,60
2017-07-08T05:10:13.465Z,65
2017-07-08T05:10:54.109Z,65
2017-07-08T05:11:34.687Z,60
2017-07-08T05:12:15.281Z,65
2017-07-08T05:12:55.870Z,70
2017-07-08T05:13:36.449Z,70
2017-07-08T05:14:17.042Z,80
2017-07-08T05:14:57.662Z,90
2017-07-08T05:15:38.233Z,100
2017-07-08T05:16:18.812Z,115
2017-07-08T05:16:59.501Z,115
2017-07-08T05:17:40.184Z,130
2017-07-08T05:18:20.753Z,140
2017-07-08T05:19:01.336Z,135
2017-07-08T05:19:41.941Z,120
2017-07-08T05:20:22.551Z,115
2017-07-08T05:21:03.155Z,125
2017-07-08T05:21:43.730Z,140
2017-07-08T05:22:24.364Z,135
2017-07-08T05:23:04.936Z,115
2017-07-08T05:23:45.518Z,105
2017-07-08T05:24:26.112Z,100
2017-07-08T05:25:06.728Z,95
2017-07-08T05:25:47.311Z,100
2017-07-08T05:26:27.888Z,105
2017-07-08T05:27:08.498Z,105
2017-07-08T05:27:49.068Z,105
2017-07-08T05:28:29.642Z,110
2017-07-08T05:29:10.220Z,120
2017-07-08T05:29:50.854Z,140
2017-07-08T05:30:31.422Z,165
2017-07-08T05:31:12.060Z,180
2017-07-08T05:31:52.695Z,175
2017-07-08T05:32:33.280Z,175
2017-07-08T05:33:13.890Z,200
2017-07-08T05:33:54.490Z,155
2017-07-08T05:34:35.075Z,180
2017-07-08T05:35:15.648Z,205
2017-07-08T05:35:56.233Z,240
2017-07-08T05:36:36.796Z,375
2017-07-08T05:37:17.385Z,405
2017-07-08T05:37:58.016Z,535
2017-07-08T05:38:38.596Z,390
2017-07-08T05:39:19.178Z,475
2017-07-08T05:39:59.753Z,590
2017-07-08T05:40:40.331Z,370
2017-07-08T05:41:20.914Z,590
2017-07-08T05:42:01.600Z,505
2017-07-08T05:42:42.183Z,295
2017-07-08T05:43:22.755Z,250
2017-07-08T05:44:03.319Z,500
2017-07-08T05:44:43.912Z,615
2017-07-08T05:45:24.512Z,595
2017-07-08T05:46:05.072Z,285
2017-07-08T05:46:45.648Z,250
2017-07-08T05:47:26.237Z,285
2017-07-08T05:48:06.833Z,545
2017-07-08T05:48:47.445Z,405
2017-07-08T05:49:28.031Z,410
2017-07-08T05:50:08.611Z,655
2017-07-08T05:50:49.188Z,440
2017-07-08T05:51:29.764Z,495
2017-07-08T05:52:10.366Z,570
2017-07-08T05:52:50.945Z,170
2017-07-08T05:53:31.530Z,125
2017-07-08T05:54:12.116Z,105
2017-07-08T05:54:52.689Z,100
2017-07-08T05:55:33.274Z,90
2017-07-08T05:56:13.851Z,90
2017-07-08T05:56:54.465Z,90
2017-07-08T05:57:48.743Z,100
2017-07-08T05:58:50.008Z,85
2017-07-08T05:59:30.602Z,80
2017-07-08T06:00:11.231Z,80
2017-07-08T06:00:51.841Z,85
2017-07-08T06:01:32.413Z,85
2017-07-08T06:02:13.024Z,90
2017-07-08T06:02:53.581Z,90
2017-07-08T06:03:34.160Z,90
2017-07-08T06:04:14.754Z,95
2017-07-08T06:04:55.328Z,95
2017-07-08T06:05:35.903Z,95
2017-07-08T06:06:16.469Z,95
2017-07-08T06:06:57.082Z,95
2017-07-08T06:07:37.687Z,95
2017-07-08T06:08:18.270Z,90
2017-07-08T06:08:58.835Z,90
2017-07-08T06:09:39.429Z,90
2017-07-08T06:10:20.016Z,90
2017-07-08T06:11:00.593Z,90
2017-07-08T06:11:41.163Z,85
2017-07-08T06:12:21.731Z,85
2017-07-08T06:13:02.288Z,85
2017-07-08T06:13:42.859Z,80
2017-07-08T06:14:23.441Z,80
2017-07-08T06:15:04.034Z,80
2017-07-08T06:15:45.155Z,75
2017-07-08T06:16:25.727Z,70
2017-07-08T06:17:06.297Z,70
2017-07-08T06:17:46.870Z,65
2017-07-08T06:18:27.447Z,65
2017-07-08T06:19:08.020Z,60
2017-07-08T06:19:48.588Z,60
2017-07-08T06:20:29.164Z,60
2017-07-08T06:21:10.032Z,60
2017-07-08T06:21:51.022Z,55
2017-07-08T06:22:31.604Z,55
2017-07-08T06:23:12.177Z,55
2017-07-08T06:23:53.142Z,55
2017-07-08T06:24:33.577Z,55
2017-07-08T06:25:14.152Z,55
2017-07-08T06:25:54.753Z,60
2017-07-08T06:26:35.329Z,60
2017-07-08T06:27:15.894Z,60
2017-07-08T06:27:56.493Z,60
2017-07-08T06:28:37.052Z,60
2017-07-08T06:29:17.667Z,60
2017-07-08T06:29:58.235Z,65
2017-07-08T06:30:38.825Z,60
2017-07-08T06:31:19.415Z,60
2017-07-08T06:31:59.993Z,60
2017-07-08T06:32:40.577Z,60
2017-07-08T06:33:21.169Z,60
2017-07-08T06:34:01.745Z,60
2017-07-08T06:34:42.444Z,60
2017-07-08T06:35:23.066Z,60
2017-07-08T06:36:03.596Z,65
2017-07-08T06:36:44.177Z,65
2017-07-08T06:37:24.773Z,65
2017-07-08T06:38:05.360Z,70
2017-07-08T06:38:45.972Z,70
2017-07-08T06:39:26.575Z,70
2017-07-08T06:40:07.169Z,70
2017-07-08T06:40:47.785Z,70
2017-07-08T06:41:28.375Z,70
2017-07-08T06:42:08.944Z,70
2017-07-08T06:42:49.572Z,70
2017-07-08T06:43:30.160Z,70
2017-07-08T06:44:10.743Z,70
2017-07-08T06:44:51.326Z,70
2017-07-08T06:45:31.911Z,70
2017-07-08T06:46:12.511Z,70
2017-07-08T06:46:53.085Z,75
2017-07-08T06:47:33.661Z,75
2017-07-08T06:48:14.222Z,75
2017-07-08T06:48:54.835Z,70
2017-07-08T06:49:35.415Z,70
2017-07-08T06:50:15.982Z,70
2017-07-08T06:50:56.579Z,65
2017-07-08T06:51:37.161Z,65
2017-07-08T06:52:17.727Z,65
2017-07-08T06:52:58.313Z,60
2017-07-08T06:53:38.912Z,60
2017-07-08T06:54:19.543Z,60
2017-07-08T06:55:00.071Z,60
2017-07-08T06:55:40.634Z,60
2017-07-08T06:56:21.207Z,60
2017-07-08T06:57:01.787Z,60
2017-07-08T06:57:42.379Z,60
2017-07-08T06:58:22.956Z,65
2017-07-08T06:59:03.527Z,60
2017-07-08T06:59:44.119Z,60
2017-07-08T07:00:24.691Z,60
2017-07-08T07:01:05.302Z,65
2017-07-08T07:01:45.953Z,65
2017-07-08T07:02:26.563Z,65
2017-07-08T07:03:07.250Z,65
2017-07-08T07:03:47.831Z,65
2017-07-08T07:04:28.441Z,70
2017-07-08T07:05:09.019Z,65
2017-07-08T07:05:49.594Z,65
2017-07-08T07:06:30.222Z,65
2017-07-08T07:07:10.875Z,65
2017-07-08T07:07:51.473Z,65
2017-07-08T07:08:32.078Z,65
2017-07-08T07:09:12.671Z,65
2017-07-08T07:09:53.240Z,65
2017-07-08T07:10:33.849Z,65
2017-07-08T07:11:14.425Z,65
2017-07-08T07:11:54.982Z,65
2017-07-08T07:12:35.577Z,65
2017-07-08T07:13:16.161Z,65
2017-07-08T07:13:56.829Z,65
2017-07-08T07:14:37.404Z,65
2017-07-08T07:15:17.981Z,65
2017-07-08T07:15:58.555Z,65
2017-07-08T07:16:39.143Z,65
2017-07-08T07:17:19.869Z,70
2017-07-08T07:18:00.453Z,65
2017-07-08T07:18:41.033Z,65
2017-07-08T07:19:21.639Z,65
2017-07-08T07:20:02.207Z,65
2017-07-08T07:20:42.797Z,65
2017-07-08T07:21:23.390Z,70
2017-07-08T07:22:04.096Z,70
2017-07-08T07:22:44.670Z,70
2017-07-08T07:23:25.408Z,70
2017-07-08T07:24:05.980Z,70
2017-07-08T07:24:46.712Z,70
2017-07-08T07:25:27.542Z,70
2017-07-08T07:26:08.060Z,70
2017-07-08T07:26:48.636Z,70
2017-07-08T07:27:29.206Z,70
2017-07-08T07:28:09.781Z,70
2017-07-08T07:28:50.405Z,70
2017-07-08T07:29:30.979Z,70
2017-07-08T07:30:11.597Z,70
2017-07-08T07:30:53.678Z,70
2017-07-08T07:31:34.024Z,70
2017-07-08T07:32:14.608Z,70
2017-07-08T07:32:55.192Z,70
2017-07-08T07:33:35.781Z,70
2017-07-08T07:34:16.367Z,70
2017-07-08T07:34:57.024Z,70
2017-07-08T07:35:37.818Z,70
2017-07-08T07:36:18.553Z,70
2017-07-08T07:36:59.129Z,70
2017-07-08T07:37:39.726Z,70
2017-07-08T07:38:20.289Z,70
2017-07-08T07:39:00.862Z,70
2017-07-08T07:39:41.439Z,75
2017-07-08T07:40:22.038Z,75
2017-07-08T07:41:02.610Z,75
2017-07-08T07:41:43.189Z,75
2017-07-08T07:42:23.773Z,75
2017-07-08T07:43:04.412Z,75
2017-07-08T07:43:44.959Z,80
2017-07-08T07:44:25.747Z,80
2017-07-08T07:45:06.447Z,85
2017-07-08T07:45:47.276Z,90
2017-07-08T07:46:28.310Z,95
2017-07-08T07:47:08.917Z,95
2017-07-08T07:47:49.503Z,95
2017-07-08T07:48:30.086Z,95
2017-07-08T07:49:10.675Z,95
2017-07-08T07:49:51.243Z,90
2017-07-08T07:50:31.843Z,90
2017-07-08T07:51:12.478Z,90
2017-07-08T07:51:53.064Z,90
2017-07-08T07:52:33.651Z,90
2017-07-08T07:53:14.217Z,90
2017-07-08T07:53:54.810Z,90
2017-07-08T07:54:35.402Z,90
2017-07-08T07:55:15.997Z,90
2017-07-08T07:55:56.601Z,90
2017-07-08T07:56:37.209Z,90
2017-07-08T07:57:17.837Z,90
2017-07-08T07:57:58.434Z,90
2017-07-08T07:58:39.025Z,90
2017-07-08T07:59:19.624Z,90
2017-07-08T08:00:00.226Z,90
2017-07-08T08:00:40.824Z,95
2017-07-08T08:01:21.416Z,95
2017-07-08T08:02:02.012Z,95
2017-07-08T08:02:42.608Z,100
2017-07-08T08:03:23.186Z,105
2017-07-08T08:04:03.811Z,110
2017-07-08T08:04:44.389Z,115
2017-07-08T08:05:24.997Z,115
2017-07-08T08:06:05.586Z,115
2017-07-08T08:06:46.177Z,115
2017-07-08T08:07:26.774Z,110
2017-07-08T08:08:07.350Z,110
2017-07-08T08:08:47.943Z,105
2017-07-08T08:09:28.567Z,105
2017-07-08T08:10:09.153Z,100
2017-07-08T08:10:49.780Z,95
2017-07-08T08:11:30.374Z,95
2017-07-08T08:12:11.015Z,95
2017-07-08T08:12:51.652Z,95
2017-07-08T08:13:32.243Z,100
2017-07-08T08:14:12.821Z,100
2017-07-08T08:14:53.409Z,100
2017-07-08T08:15:34.014Z,100
2017-07-08T08:16:14.633Z,105
2017-07-08T08:16:55.224Z,105
2017-07-08T08:17:35.813Z,105
2017-07-08T08:18:16.394Z,105
2017-07-08T08:18:56.992Z,105
2017-07-08T08:19:37.583Z,100
2017-07-08T08:20:18.173Z,100
2017-07-08T08:20:58.804Z,100
2017-07-08T08:21:39.436Z,100
2017-07-08T08:22:20.061Z,100
2017-07-08T08:23:00.659Z,100
2017-07-08T08:23:41.273Z,100
2017-07-08T08:24:21.847Z,105
2017-07-08T08:25:02.432Z,105
2017-07-08T08:25:43.061Z,105
2017-07-08T08:26:23.644Z,105
2017-07-08T08:27:04.261Z,110
2017-07-08T08:27:44.829Z,110
2017-07-08T08:28:25.496Z,115
2017-07-08T08:29:06.057Z,125
2017-07-08T08:29:46.661Z,120
2017-07-08T08:30:27.255Z,120
2017-07-08T08:31:07.809Z,125
2017-07-08T08:31:48.405Z,125
2017-07-08T08:32:28.998Z,120
2017-07-08T08:33:09.599Z,120
2017-07-08T08:33:50.164Z,125
2017-07-08T08:34:30.752Z,125
2017-07-08T08:35:11.358Z,125
2017-07-08T08:35:51.949Z,125
2017-07-08T08:36:32.578Z,120
2017-07-08T08:37:13.160Z,120
2017-07-08T08:37:53.773Z,120
2017-07-08T08:38:34.359Z,120
2017-07-08T08:39:14.932Z,120
2017-07-08T08:39:55.542Z,115
2017-07-08T08:40:36.108Z,120
2017-07-08T08:41:16.721Z,120
2017-07-08T08:41:57.316Z,120
2017-07-08T08:42:37.901Z,120
2017-07-08T08:43:18.480Z,125
2017-07-08T08:43:59.077Z,125
2017-07-08T08:44:39.668Z,125
2017-07-08T08:45:20.249Z,130
2017-07-08T08:46:00.816Z,125
2017-07-08T08:46:41.422Z,130
2017-07-08T08:47:22.014Z,130
2017-07-08T08:48:02.605Z,130
2017-07-08T08:48:43.187Z,130
2017-07-08T08:49:23.818Z,135
2017-07-08T08:50:04.417Z,135
2017-07-08T08:50:45.021Z,130
2017-07-08T08:51:25.596Z,130
2017-07-08T08:52:06.205Z,130
2017-07-08T08:52:46.788Z,130
2017-07-08T08:53:27.369Z,130
2017-07-08T08:54:07.956Z,130
2017-07-08T08:54:48.545Z,130
2017-07-08T08:55:29.141Z,130
2017-07-08T08:56:09.757Z,135
2017-07-08T08:56:50.324Z,140
2017-07-08T08:57:30.937Z,140
2017-07-08T08:58:11.539Z,140
2017-07-08T08:58:52.115Z,145
2017-07-08T08:59:32.724Z,140
2017-07-08T09:02:12.440Z,130
2017-07-08T09:02:56.561Z,130
2017-07-08T09:03:37.160Z,135
2017-07-08T09:05:49.994Z,145
2017-07-08T09:06:30.631Z,140
2017-07-08T09:07:11.208Z,140
2017-07-08T09:07:51.751Z,150
2017-07-08T09:08:32.365Z,160
2017-07-08T09:09:12.983Z,170
2017-07-08T09:09:53.550Z,180
2017-07-08T09:10:34.139Z,180
2017-07-08T09:11:14.714Z,170
2017-07-08T09:11:55.281Z,165
2017-07-08T09:12:35.849Z,175
2017-07-08T09:13:16.425Z,185
2017-07-08T09:13:57.746Z,200
2017-07-08T09:14:38.308Z,200
2017-07-08T09:15:18.887Z,185
2017-07-08T09:15:59.460Z,170
2017-07-08T09:16:40.031Z,155
2017-07-08T09:17:20.609Z,140
2017-07-08T09:18:01.201Z,140
2017-07-08T09:18:41.800Z,145
2017-07-08T09:19:22.365Z,140
2017-07-08T09:20:02.928Z,130
2017-07-08T09:20:43.488Z,120
2017-07-08T09:21:24.637Z,105
2017-07-08T09:22:05.203Z,95
2017-07-08T09:22:45.767Z,100
2017-07-08T09:23:26.359Z,105
2017-07-08T09:24:06.959Z,105
2017-07-08T09:24:47.560Z,105
2017-07-08T09:25:28.161Z,100
2017-07-08T09:26:08.752Z,85
2017-07-08T09:26:49.306Z,80
2017-07-08T09:27:29.908Z,75
2017-07-08T09:28:10.496Z,65
2017-07-08T09:28:51.067Z,60
2017-07-08T09:29:31.679Z,55
2017-07-08T09:30:12.237Z,60
2017-07-08T09:30:52.822Z,65
2017-07-08T09:31:33.382Z,65
2017-07-08T09:32:13.966Z,70
2017-07-08T09:32:54.526Z,75
2017-07-08T09:33:35.128Z,85
2017-07-08T09:34:15.716Z,90
2017-07-08T09:34:56.326Z,90
2017-07-08T09:35:36.916Z,95
2017-07-08T09:36:17.508Z,95
2017-07-08T09:36:58.085Z,90
2017-07-08T09:37:38.645Z,90
2017-07-08T09:38:19.224Z,100
2017-07-08T09:38:59.801Z,120
2017-07-08T09:39:40.393Z,125
2017-07-08T09:40:20.974Z,135
2017-07-08T09:41:01.559Z,145
2017-07-08T09:41:42.130Z,160
2017-07-08T09:42:22.696Z,160
2017-07-08T09:43:03.280Z,165
2017-07-08T09:43:43.892Z,175
2017-07-08T09:44:24.558Z,180
2017-07-08T09:45:05.116Z,190
2017-07-08T09:45:45.684Z,190
2017-07-08T09:46:26.263Z,195
2017-07-08T09:47:06.905Z,195